Nome Airport
PAOM : now visible

Aeroporto :











RITROVATECI SU...

 
LOGIN :

Iscrizione | Disclaimer

   EN    FR    IT 

 









Sommario :    VFR   VFR Marginale   IFR   IFR Intensivo   IFR Molto Intensivo
Visibilità : 
Base nubi : 
>= 8 km
>= 3000ft
5 / 8 km
1000 / 3000 ft
1500m / 5 km
500 / 1000 ft
800 / 1500m
200 / 500 ft
< 800m
< 200 ft
Simboli :   Temporali  Nebbia  Neve Forte  Precipitazioni Forti  Vento > 20 kt






- Altitudine del aeroporto : 37 ft
- Codice IATA : OME


PAOM - Nome

ULTIMO METAR :
  • 100253Z 05011G19KT 1 3/4SM -SN BKN032 OVC041 M06/M08 A3005 RMK AO2 SLP176 P0000 60002 T10561083 56014

METARs OBSOLETI :
  • 100153Z COR 06013KT 3SM -SN OVC042 M06/M09 A3006 RMK AO2 SLP179 P0001 T10611089
  • 100053Z 07013KT 1 1/2SM -SN BR OVC033 M07/M09 A3007 RMK AO2 SLP183 P0001 T10671089
  • 100046Z 07014KT 1 3/4SM -SN BKN033 OVC044 M07/M09 A3008 RMK AO2 P0001 T10671094

TAF PAOM
Valido dal 10 a 02 ore il 11 a 00 ore UTC


100220Z 1002/1024 05015KT 3SM -SN BR SCT015 OVC035
TEMPO 1002/1004 1SM -SN BR OVC012
FM100400 05013KT 2SM -SN BR OVC015
FM100800 02006KT 5SM -SN BR OVC025
FM102000 06005KT 2SM -SN BR OVC015



MetMap, La meteo Aeronautica in un colpo d'occhio ! - Copyright ORBIFLY Dicembre 2007 - Disclaimer

ORBIFLY MET'MAP TEAM :

Programmazione e sviluppo : Alexandra Zaïnal
Concezione : Baudouin d'Aumeries
Aiuto per la programmazione : Marc-Olivier Méhu
Supporto tecnico e logistico : Manuel Goepfert
Aiuto per la traduzione : Arnaldo La Scala

Contatto : metmap@orbifly.com




FONTI E CREDITI :

   NOAA       Earth
Advisory